Time;durP1;ratioP1;P1;durP2;ratioP2;P2;SDS_P1;SDS_P2;PMS_P1;PMS_P2;Temp;Humidity;BMP_temperature;BMP_pressure;BME280_temperature;BME280_humidity;BME280_pressure;Samples;Min_cycle;Max_cycle;Signal;HPM_P1;HPM_P2
2022/03/01 00:01:22;;;;;;;1.40;0.57;;;12.20;99.90;;;;;;6364805;22;20174;-92
2022/03/01 00:03:53;;;;;;;0.37;0.37;;;12.20;99.90;;;;;;6366193;22;20220;-93
2022/03/01 00:06:30;;;;;;;1.83;0.50;;;12.20;99.90;;;;;;6340337;22;20373;-93
2022/03/01 00:11:46;;;;;;;1.03;1.03;;;12.10;99.90;;;;;;6303861;22;20204;-92
2022/03/01 00:14:19;;;;;;;1.33;0.50;;;12.10;99.90;;;;;;6333516;22;20184;-94
2022/03/01 00:16:50;;;;;;;1.10;0.50;;;12.00;99.90;;;;;;6334310;22;20198;-95
2022/03/01 00:19:22;;;;;;;1.13;0.43;;;12.00;99.90;;;;;;6333126;22;20201;-93
2022/03/01 00:21:55;;;;;;;4.83;2.73;;;12.00;99.90;;;;;;6289597;22;20206;-94
2022/03/01 00:24:26;;;;;;;0.57;0.40;;;12.00;99.90;;;;;;6294224;22;20183;-93
2022/03/01 00:26:59;;;;;;;0.70;0.70;;;12.00;99.90;;;;;;6281940;22;20163;-92
2022/03/01 00:29:31;;;;;;;0.50;0.40;;;12.00;99.90;;;;;;6285001;22;20171;-93
2022/03/01 00:32:02;;;;;;;0.50;0.50;;;12.00;99.90;;;;;;6286916;22;20194;-93
2022/03/01 00:34:34;;;;;;;5.27;0.70;;;12.00;99.90;;;;;;6300928;22;20163;-90
2022/03/01 00:37:05;;;;;;;1.50;0.40;;;12.00;99.90;;;;;;6298633;22;20197;-94
2022/03/01 00:39:37;;;;;;;1.20;0.37;;;11.90;99.90;;;;;;6295547;22;20179;-94
2022/03/01 00:42:13;;;;;;;0.23;0.20;;;11.90;99.90;;;;;;6289559;22;20170;-93
2022/03/01 00:44:45;;;;;;;0.73;0.27;;;11.90;99.90;;;;;;6289685;22;20173;-93
2022/03/01 00:47:16;;;;;;;0.80;0.30;;;11.90;99.90;;;;;;6285949;22;20175;-93
2022/03/01 00:49:47;;;;;;;2.20;0.33;;;11.90;99.90;;;;;;6280509;22;20649;-93
2022/03/01 00:52:18;;;;;;;0.87;0.70;;;11.90;99.90;;;;;;6286999;22;20174;-93
2022/03/01 00:54:49;;;;;;;3.50;0.30;;;11.90;99.90;;;;;;6295257;22;20253;-93
2022/03/01 00:57:23;;;;;;;0.60;0.40;;;11.90;99.90;;;;;;6291694;22;20185;-91
2022/03/01 00:59:57;;;;;;;0.60;0.40;;;11.90;99.90;;;;;;6299400;22;20179;-92
2022/03/01 01:05:11;;;;;;;0.70;0.70;;;11.90;99.90;;;;;;6331237;22;20262;-92
2022/03/01 01:07:43;;;;;;;1.07;0.50;;;12.00;99.90;;;;;;6340398;22;20178;-93
2022/03/01 01:10:15;;;;;;;0.73;0.50;;;12.00;99.90;;;;;;6343322;22;20324;-92
2022/03/01 01:12:48;;;;;;;3.03;0.80;;;12.00;99.90;;;;;;6357653;22;20173;-92
2022/03/01 01:15:21;;;;;;;1.13;0.60;;;11.90;99.90;;;;;;6351894;22;20181;-92
2022/03/01 01:17:52;;;;;;;1.83;0.73;;;11.90;99.90;;;;;;6353719;22;20279;-94
2022/03/01 01:20:24;;;;;;;0.97;0.40;;;11.90;99.90;;;;;;6341256;22;20205;-91
2022/03/01 01:22:56;;;;;;;0.70;0.40;;;11.90;99.90;;;;;;6356386;22;20169;-93
2022/03/01 01:25:28;;;;;;;0.83;0.50;;;11.80;99.90;;;;;;6356721;22;20177;-92
2022/03/01 01:28:04;;;;;;;36.57;6.67;;;11.80;99.90;;;;;;6362679;22;20158;-94
2022/03/01 01:30:36;;;;;;;0.77;0.43;;;11.80;99.90;;;;;;6364128;22;20189;-94
2022/03/01 01:33:08;;;;;;;3.63;3.07;;;11.80;99.90;;;;;;6309896;22;20165;-94
2022/03/01 01:35:41;;;;;;;1.93;0.30;;;11.80;99.90;;;;;;6360268;22;20174;-93
2022/03/01 01:38:14;;;;;;;3.23;0.40;;;11.80;99.90;;;;;;6333156;22;20674;-93
2022/03/01 01:40:45;;;;;;;0.77;0.40;;;11.80;99.90;;;;;;6347817;22;20608;-92
2022/03/01 01:43:18;;;;;;;1.70;0.80;;;11.80;99.90;;;;;;6352222;22;20165;-89
2022/03/01 01:45:49;;;;;;;1.97;0.50;;;11.80;99.90;;;;;;6362326;22;20158;-91
2022/03/01 01:48:20;;;;;;;3.43;2.40;;;11.80;99.90;;;;;;6367363;22;20207;-93
2022/03/01 01:53:39;;;;;;;0.63;0.30;;;11.70;99.90;;;;;;6366027;22;20232;-93
2022/03/01 01:56:10;;;;;;;2.00;0.30;;;11.70;99.90;;;;;;6367336;22;20174;-90
2022/03/01 01:58:45;;;;;;;1.87;0.37;;;11.70;99.90;;;;;;6366872;22;20166;-92
2022/03/01 02:01:17;;;;;;;0.50;0.40;;;11.70;99.90;;;;;;6367432;22;20221;-92
2022/03/01 02:03:48;;;;;;;1.17;1.00;;;11.60;99.90;;;;;;6361593;22;20166;-93
2022/03/01 02:06:19;;;;;;;1.03;0.43;;;11.60;99.90;;;;;;6361098;22;20235;-93
2022/03/01 02:08:50;;;;;;;0.60;0.30;;;11.60;99.90;;;;;;6352097;22;20182;-92
2022/03/01 02:11:21;;;;;;;0.70;0.43;;;11.60;99.90;;;;;;6346778;22;20245;-91
2022/03/01 02:13:54;;;;;;;1.60;0.50;;;11.60;99.90;;;;;;6351096;22;20189;-92
2022/03/01 02:16:25;;;;;;;3.17;0.30;;;11.60;99.90;;;;;;6344339;22;20186;-92
2022/03/01 02:18:57;;;;;;;2.73;0.30;;;11.50;99.90;;;;;;6343683;22;20178;-92
2022/03/01 02:21:33;;;;;;;0.60;0.30;;;11.50;99.90;;;;;;6343262;22;20165;-93
2022/03/01 02:24:13;;;;;;;0.43;0.43;;;11.50;99.90;;;;;;6345995;22;20173;-93
2022/03/01 02:26:44;;;;;;;2.70;0.50;;;11.50;99.90;;;;;;6345706;22;20174;-92
2022/03/01 02:29:15;;;;;;;2.17;0.50;;;11.50;99.90;;;;;;6348741;22;20250;-93
2022/03/01 02:31:46;;;;;;;19.50;2.70;;;11.50;99.90;;;;;;6353727;22;20177;-92
2022/03/01 02:34:18;;;;;;;1.23;0.40;;;11.50;99.90;;;;;;6361293;22;20170;-92
2022/03/01 02:36:52;;;;;;;2.23;2.07;;;11.50;99.90;;;;;;6360346;22;20201;-93
2022/03/01 02:39:23;;;;;;;1.03;0.57;;;11.50;99.90;;;;;;6354430;22;20170;-93
2022/03/01 02:41:54;;;;;;;0.40;0.30;;;11.50;99.90;;;;;;6347633;22;20158;-93
2022/03/01 02:44:26;;;;;;;0.63;0.23;;;11.50;99.90;;;;;;6360536;22;20170;-92
2022/03/01 02:46:58;;;;;;;0.97;0.20;;;11.50;99.90;;;;;;6349790;22;20162;-92
2022/03/01 02:49:29;;;;;;;0.43;0.43;;;11.40;99.90;;;;;;6348000;22;20193;-90
2022/03/01 02:52:02;;;;;;;2.10;0.40;;;11.40;99.90;;;;;;6343287;22;20224;-92
2022/03/01 02:54:34;;;;;;;0.87;0.30;;;11.40;99.90;;;;;;6342784;22;20537;-92
2022/03/01 02:57:05;;;;;;;0.50;0.40;;;11.40;99.90;;;;;;6341067;22;20205;-93
2022/03/01 02:59:36;;;;;;;0.27;0.27;;;11.30;99.90;;;;;;6342475;22;20185;-93
2022/03/01 03:02:09;;;;;;;1.10;0.40;;;11.30;99.90;;;;;;6342464;22;20170;-92
2022/03/01 03:04:44;;;;;;;1.40;0.30;;;11.30;99.90;;;;;;6341900;22;20169;-93
2022/03/01 03:07:17;;;;;;;2.10;0.30;;;11.30;99.90;;;;;;6341322;22;20162;-93
2022/03/01 03:09:48;;;;;;;1.27;1.20;;;11.30;99.90;;;;;;6342452;22;20177;-93
2022/03/01 03:12:20;;;;;;;4.20;1.07;;;11.40;99.90;;;;;;6341640;22;20166;-92
2022/03/01 03:14:51;;;;;;;0.40;0.40;;;11.40;99.90;;;;;;6350141;22;20173;-93
2022/03/01 03:17:22;;;;;;;0.60;0.20;;;11.40;99.90;;;;;;6358954;22;20209;-91
2022/03/01 03:19:54;;;;;;;2.90;0.30;;;11.30;99.90;;;;;;6359777;22;20166;-92
2022/03/01 03:22:27;;;;;;;1.07;0.37;;;11.30;99.90;;;;;;6359384;22;20178;-92
2022/03/01 03:24:59;;;;;;;1.33;0.43;;;11.30;99.90;;;;;;6358305;22;20203;-91
2022/03/01 03:27:34;;;;;;;0.43;0.30;;;11.30;99.90;;;;;;6352874;22;20178;-92
2022/03/01 03:30:05;;;;;;;0.87;0.40;;;11.30;99.90;;;;;;6359478;22;20170;-93
2022/03/01 03:32:36;;;;;;;0.73;0.70;;;11.20;99.90;;;;;;6365775;22;20191;-93
2022/03/01 03:35:08;;;;;;;2.10;0.30;;;11.20;99.90;;;;;;6359013;22;20173;-93
2022/03/01 03:37:42;;;;;;;4.33;2.63;;;11.20;99.90;;;;;;6357764;22;20316;-93
2022/03/01 03:40:14;;;;;;;1.00;0.30;;;11.20;99.90;;;;;;6359765;22;20165;-93
2022/03/01 03:42:45;;;;;;;3.53;0.30;;;11.20;99.90;;;;;;6353872;22;20161;-93
2022/03/01 03:45:17;;;;;;;1.90;0.40;;;11.20;99.90;;;;;;6349864;22;20288;-92
2022/03/01 03:47:48;;;;;;;5.03;0.37;;;11.20;99.90;;;;;;6353610;22;20185;-92
2022/03/01 03:50:20;;;;;;;0.63;0.30;;;11.10;99.90;;;;;;6356222;22;20169;-90
2022/03/01 03:52:53;;;;;;;1.23;0.43;;;11.10;99.90;;;;;;6359090;22;20181;-92
2022/03/01 03:55:25;;;;;;;2.43;2.10;;;11.10;99.90;;;;;;6353117;22;20486;-92
2022/03/01 03:57:58;;;;;;;1.30;0.30;;;11.10;99.90;;;;;;6357813;22;20256;-92
2022/03/01 04:00:31;;;;;;;2.10;1.27;;;11.10;99.90;;;;;;6360271;22;20166;-91
2022/03/01 04:03:03;;;;;;;0.63;0.40;;;11.10;99.90;;;;;;6367498;22;20165;-89
2022/03/01 04:05:35;;;;;;;1.80;0.73;;;11.00;99.90;;;;;;6366643;22;20154;-93
2022/03/01 04:08:10;;;;;;;0.70;0.47;;;11.00;99.90;;;;;;6361432;22;20180;-92
2022/03/01 04:10:41;;;;;;;1.03;0.37;;;11.10;99.90;;;;;;6361747;22;20178;-93
2022/03/01 04:13:12;;;;;;;1.73;0.70;;;11.10;99.90;;;;;;6360795;22;20170;-93
2022/03/01 04:15:44;;;;;;;1.30;0.33;;;11.10;99.90;;;;;;6358540;22;20170;-93
2022/03/01 04:18:14;;;;;;;0.20;0.20;;;11.10;99.90;;;;;;6358387;22;20193;-91
2022/03/01 04:20:46;;;;;;;0.73;0.30;;;11.10;99.90;;;;;;6359358;22;20173;-93
2022/03/01 04:23:19;;;;;;;0.70;0.40;;;11.10;99.90;;;;;;6349400;22;20177;-93
2022/03/01 04:25:51;;;;;;;0.63;0.37;;;11.10;99.90;;;;;;6354387;22;20193;-92
2022/03/01 04:28:22;;;;;;;1.33;0.30;;;11.10;99.90;;;;;;6359328;22;20154;-92
2022/03/01 04:30:55;;;;;;;0.57;0.30;;;11.10;99.90;;;;;;6355120;22;20264;-93
2022/03/01 04:33:27;;;;;;;0.50;0.37;;;11.10;99.90;;;;;;6353963;22;20165;-92
2022/03/01 04:36:02;;;;;;;1.80;0.70;;;11.10;99.90;;;;;;6327644;22;20169;-93
2022/03/01 04:38:35;;;;;;;1.17;0.60;;;11.10;99.90;;;;;;6356492;22;20189;-93
2022/03/01 04:41:07;;;;;;;0.73;0.30;;;11.00;99.90;;;;;;6358520;22;20189;-93
2022/03/01 04:43:38;;;;;;;1.77;0.80;;;11.00;99.90;;;;;;6360626;22;20173;-93
2022/03/01 04:46:12;;;;;;;1.27;0.40;;;11.00;99.90;;;;;;6358887;22;20162;-92
2022/03/01 04:48:43;;;;;;;1.03;0.50;;;11.00;99.90;;;;;;6360422;22;20249;-91
2022/03/01 04:51:21;;;;;;;2.10;0.50;;;11.00;99.90;;;;;;6333438;22;20194;-92
2022/03/01 04:53:55;;;;;;;1.10;0.57;;;11.00;99.90;;;;;;6336172;22;20176;-93
2022/03/01 04:56:27;;;;;;;0.87;0.60;;;11.10;99.90;;;;;;6357645;22;20162;-93
2022/03/01 04:58:58;;;;;;;4.27;0.63;;;11.10;99.90;;;;;;6356072;22;20194;-93
2022/03/01 05:01:32;;;;;;;0.50;0.50;;;11.20;99.90;;;;;;6357222;22;20174;-93
2022/03/01 05:04:05;;;;;;;0.77;0.60;;;11.20;99.90;;;;;;6356068;22;20166;-92
2022/03/01 05:06:36;;;;;;;0.80;0.50;;;11.20;99.90;;;;;;6356702;22;20181;-93
2022/03/01 05:09:10;;;;;;;1.20;0.53;;;11.20;99.90;;;;;;6355239;22;20186;-93
2022/03/01 05:11:43;;;;;;;2.10;0.70;;;11.20;99.90;;;;;;6356586;22;20200;-93
2022/03/01 05:14:15;;;;;;;1.10;0.70;;;11.20;99.90;;;;;;6357047;22;20177;-93
2022/03/01 05:16:48;;;;;;;0.77;0.60;;;11.20;99.90;;;;;;6357134;22;20222;-92
2022/03/01 05:19:20;;;;;;;1.67;1.30;;;11.30;99.90;;;;;;6327369;22;20216;-91
2022/03/01 05:21:51;;;;;;;1.73;0.60;;;11.30;99.90;;;;;;6351043;22;20170;-92
2022/03/01 05:24:24;;;;;;;1.73;0.80;;;11.20;99.90;;;;;;6326368;22;20173;-92
2022/03/01 05:26:55;;;;;;;2.63;0.57;;;11.20;99.90;;;;;;6348822;22;20204;-93
2022/03/01 05:29:26;;;;;;;1.47;0.77;;;11.20;99.90;;;;;;6342165;22;20162;-91
2022/03/01 05:31:57;;;;;;;5.20;0.83;;;11.20;99.90;;;;;;6342092;22;20173;-93
2022/03/01 05:34:28;;;;;;;2.93;0.60;;;11.20;99.90;;;;;;6344065;22;20173;-91
2022/03/01 05:37:00;;;;;;;2.77;0.50;;;11.20;99.90;;;;;;6347224;22;20244;-92
2022/03/01 05:39:33;;;;;;;1.00;0.60;;;11.20;99.90;;;;;;6348447;22;20682;-91
2022/03/01 05:42:05;;;;;;;1.63;0.80;;;11.20;99.90;;;;;;6342689;22;20162;-92
2022/03/01 05:44:36;;;;;;;1.47;0.60;;;11.20;99.90;;;;;;6342596;22;20528;-93
2022/03/01 05:47:08;;;;;;;2.73;0.90;;;11.20;99.90;;;;;;6340700;22;20162;-92
2022/03/01 05:49:39;;;;;;;1.47;0.90;;;11.20;99.90;;;;;;6340891;22;20219;-92
2022/03/01 05:52:11;;;;;;;0.83;0.70;;;11.20;99.90;;;;;;6344524;22;20219;-93
2022/03/01 05:54:44;;;;;;;1.60;0.90;;;11.20;99.90;;;;;;6345338;22;20166;-94
2022/03/01 05:57:15;;;;;;;1.80;0.60;;;11.20;99.90;;;;;;6342044;22;20177;-94
2022/03/01 05:59:46;;;;;;;0.83;0.40;;;11.20;99.90;;;;;;6342874;22;20186;-93
2022/03/01 06:02:17;;;;;;;0.37;0.37;;;11.10;99.90;;;;;;6348471;22;20185;-94
2022/03/01 06:04:48;;;;;;;0.67;0.50;;;11.10;99.90;;;;;;6354382;22;20162;-93
2022/03/01 06:07:19;;;;;;;0.97;0.40;;;11.10;99.90;;;;;;6359674;22;20166;-93
2022/03/01 06:09:52;;;;;;;2.60;0.40;;;11.10;99.90;;;;;;6342763;22;20166;-94
2022/03/01 06:12:23;;;;;;;0.67;0.47;;;11.10;99.90;;;;;;6315942;22;20204;-93
2022/03/01 06:14:55;;;;;;;0.53;0.30;;;11.00;99.90;;;;;;6343935;22;20173;-92
2022/03/01 06:17:26;;;;;;;1.70;0.67;;;11.10;99.90;;;;;;6362706;22;20180;-93
2022/03/01 06:19:58;;;;;;;0.47;0.40;;;11.10;99.90;;;;;;6365486;22;20181;-94
2022/03/01 06:22:29;;;;;;;0.50;0.40;;;11.00;99.90;;;;;;6362695;22;20181;-92
2022/03/01 06:25:01;;;;;;;0.40;0.30;;;11.10;99.90;;;;;;6362986;22;20184;-93
2022/03/01 06:27:32;;;;;;;0.40;0.40;;;11.10;99.90;;;;;;6325625;22;20207;-91
2022/03/01 06:30:03;;;;;;;1.03;0.50;;;11.10;99.90;;;;;;6352135;22;20640;-93
2022/03/01 06:32:35;;;;;;;2.43;0.50;;;11.10;99.90;;;;;;6345694;22;20209;-93
2022/03/01 06:35:07;;;;;;;0.60;0.60;;;11.00;99.90;;;;;;6344163;22;20190;-93
2022/03/01 06:37:46;;;;;;;1.80;0.53;;;11.10;99.90;;;;;;6347420;22;20170;-93
2022/03/01 06:40:18;;;;;;;1.97;0.67;;;11.10;99.90;;;;;;6344075;22;20340;-93
2022/03/01 06:42:49;;;;;;;0.97;0.60;;;11.10;99.90;;;;;;6344271;22;20166;-92
2022/03/01 06:45:20;;;;;;;1.33;0.60;;;11.10;99.90;;;;;;6347212;22;20181;-93
2022/03/01 06:47:52;;;;;;;0.63;0.47;;;11.10;99.90;;;;;;6344050;22;20178;-94
2022/03/01 06:50:24;;;;;;;0.70;0.70;;;11.10;99.90;;;;;;6346198;22;20197;-92
2022/03/01 06:52:54;;;;;;;1.43;0.60;;;11.10;99.90;;;;;;6343785;22;20186;-93
2022/03/01 06:55:27;;;;;;;1.20;1.10;;;11.10;99.90;;;;;;6343795;22;20173;-93
2022/03/01 06:57:59;;;;;;;1.10;1.00;;;11.20;99.90;;;;;;6359118;22;20166;-93
2022/03/01 07:00:30;;;;;;;1.00;1.00;;;11.20;99.90;;;;;;6359830;22;20651;-94
2022/03/01 07:03:01;;;;;;;1.17;1.07;;;11.20;99.90;;;;;;6356289;22;20251;-94
2022/03/01 07:05:32;;;;;;;1.57;1.00;;;11.20;99.90;;;;;;6329890;22;20177;-94
2022/03/01 07:08:03;;;;;;;1.30;1.00;;;11.20;99.90;;;;;;6358459;22;20182;-94
2022/03/01 07:10:37;;;;;;;0.60;0.60;;;11.20;99.90;;;;;;6359227;22;20166;-94
2022/03/01 07:13:09;;;;;;;0.50;0.50;;;11.20;99.90;;;;;;6354993;22;20170;-92
2022/03/01 07:15:39;;;;;;;0.60;0.40;;;11.20;99.90;;;;;;6347850;22;20167;-94
2022/03/01 07:18:11;;;;;;;1.17;0.47;;;11.20;99.90;;;;;;6329266;22;20170;-92
2022/03/01 07:20:43;;;;;;;0.87;0.50;;;11.20;99.90;;;;;;6340032;22;20181;-93
2022/03/01 07:23:14;;;;;;;0.30;0.30;;;11.20;99.90;;;;;;6366111;22;20180;-93
2022/03/01 07:25:47;;;;;;;0.53;0.40;;;11.20;99.90;;;;;;6358508;22;20173;-93
2022/03/01 07:28:18;;;;;;;0.77;0.50;;;11.10;99.90;;;;;;6344229;22;20216;-93
2022/03/01 07:30:49;;;;;;;0.63;0.30;;;11.10;99.90;;;;;;6345379;22;20222;-93
2022/03/01 07:33:20;;;;;;;0.30;0.30;;;11.10;99.90;;;;;;6343933;22;20505;-92
2022/03/01 07:35:50;;;;;;;0.70;0.33;;;11.10;99.90;;;;;;6341977;22;20235;-92
2022/03/01 07:38:22;;;;;;;2.03;0.40;;;11.10;99.90;;;;;;6341811;22;20177;-92
2022/03/01 07:40:55;;;;;;;0.40;0.20;;;11.10;99.90;;;;;;6351369;22;20212;-92
2022/03/01 07:43:26;;;;;;;1.27;0.30;;;11.10;99.90;;;;;;6351313;22;20170;-92
2022/03/01 07:45:57;;;;;;;0.40;0.20;;;11.10;99.90;;;;;;6342743;22;20174;-93
2022/03/01 07:48:28;;;;;;;0.87;0.37;;;11.10;99.90;;;;;;6342808;22;20190;-94
2022/03/01 07:50:59;;;;;;;1.07;0.33;;;11.00;99.90;;;;;;6341515;22;20548;-92
2022/03/01 07:53:31;;;;;;;0.33;0.30;;;11.00;99.90;;;;;;6342938;22;20162;-93
2022/03/01 07:56:04;;;;;;;0.20;0.13;;;11.00;99.90;;;;;;6343124;22;20177;-92
2022/03/01 07:58:36;;;;;;;0.30;0.30;;;11.00;99.90;;;;;;6342530;22;20169;-93
2022/03/01 08:01:07;;;;;;;0.30;0.30;;;11.00;99.90;;;;;;6343536;22;20202;-93
2022/03/01 08:03:38;;;;;;;0.20;0.20;;;11.00;99.90;;;;;;6348683;22;20173;-92
2022/03/01 08:06:09;;;;;;;1.47;0.30;;;11.00;99.90;;;;;;6343520;22;20166;-93
2022/03/01 08:08:41;;;;;;;0.30;0.10;;;11.00;99.90;;;;;;6349424;22;20166;-93
2022/03/01 08:11:14;;;;;;;0.20;0.20;;;11.00;99.90;;;;;;6343645;22;20212;-94
2022/03/01 08:13:46;;;;;;;0.80;0.20;;;11.00;99.90;;;;;;6343248;22;20189;-94
2022/03/01 08:16:17;;;;;;;0.40;0.20;;;11.00;99.90;;;;;;6343492;22;20200;-92
2022/03/01 08:18:48;;;;;;;0.60;0.20;;;10.90;99.90;;;;;;6353686;22;20181;-91
2022/03/01 08:21:19;;;;;;;0.10;0.10;;;10.90;99.90;;;;;;6353175;22;20212;-92
2022/03/01 08:23:54;;;;;;;0.90;0.20;;;10.90;99.90;;;;;;6321136;22;20166;-93
2022/03/01 08:26:29;;;;;;;0.77;0.30;;;10.90;99.90;;;;;;6345658;22;20162;-92
2022/03/01 08:29:01;;;;;;;0.30;0.20;;;10.90;99.90;;;;;;6345625;22;20172;-92
2022/03/01 08:31:32;;;;;;;0.33;0.30;;;10.90;99.90;;;;;;6361035;22;20154;-93
2022/03/01 08:34:04;;;;;;;0.73;0.20;;;10.90;99.90;;;;;;6366610;22;20168;-94
2022/03/01 08:36:35;;;;;;;0.50;0.20;;;10.90;99.90;;;;;;6366536;22;20164;-93
2022/03/01 08:39:08;;;;;;;1.20;0.30;;;10.90;99.90;;;;;;6365737;22;20166;-92
2022/03/01 08:41:41;;;;;;;0.40;0.20;;;10.90;99.90;;;;;;6366542;22;20233;-95
2022/03/01 08:44:13;;;;;;;0.50;0.20;;;10.90;99.90;;;;;;6366305;22;20225;-91
2022/03/01 08:46:45;;;;;;;0.20;0.20;;;11.00;99.90;;;;;;6366326;22;20166;-93
2022/03/01 08:49:16;;;;;;;1.13;0.20;;;11.00;99.90;;;;;;6360391;22;20158;-92
2022/03/01 08:51:47;;;;;;;0.57;0.30;;;10.90;99.90;;;;;;6365191;22;20189;-93
2022/03/01 08:54:19;;;;;;;0.27;0.20;;;10.90;99.90;;;;;;6365606;22;20182;-93
2022/03/01 08:56:53;;;;;;;0.83;0.30;;;10.90;99.90;;;;;;6363860;22;20170;-95
2022/03/01 08:59:25;;;;;;;0.10;0.10;;;11.00;99.90;;;;;;6361499;22;20191;-93
2022/03/01 09:01:56;;;;;;;0.50;0.30;;;11.00;99.90;;;;;;6360695;22;20181;-94
2022/03/01 09:04:27;;;;;;;0.30;0.30;;;10.90;99.90;;;;;;6360795;22;20184;-94
2022/03/01 09:06:58;;;;;;;1.20;0.50;;;10.90;99.90;;;;;;6359371;22;20181;-93
2022/03/01 09:09:29;;;;;;;0.50;0.50;;;10.90;99.90;;;;;;6361296;22;20170;-93
2022/03/01 09:12:02;;;;;;;0.73;0.30;;;10.90;99.90;;;;;;6365233;22;20162;-93
2022/03/01 09:14:36;;;;;;;0.67;0.40;;;10.90;99.90;;;;;;6360808;22;20172;-92
2022/03/01 09:17:08;;;;;;;0.50;0.50;;;10.90;99.90;;;;;;6362566;22;20181;-94
2022/03/01 09:19:39;;;;;;;0.50;0.50;;;10.90;99.90;;;;;;6363012;22;20166;-93
2022/03/01 09:22:10;;;;;;;0.60;0.60;;;10.90;99.90;;;;;;6358971;22;20190;-93
2022/03/01 09:24:42;;;;;;;0.87;0.67;;;10.90;99.90;;;;;;6360429;22;20169;-93
2022/03/01 09:27:14;;;;;;;3.57;1.07;;;10.90;99.90;;;;;;6355933;22;20211;-93
2022/03/01 09:29:46;;;;;;;1.10;1.00;;;10.90;99.90;;;;;;6356474;22;20235;-94
2022/03/01 09:32:18;;;;;;;0.90;0.90;;;10.90;99.90;;;;;;6360291;22;20162;-93
2022/03/01 09:34:49;;;;;;;1.50;1.40;;;10.90;99.90;;;;;;6355376;22;20177;-94
2022/03/01 09:37:20;;;;;;;1.00;0.90;;;10.90;99.90;;;;;;6347090;22;20203;-93
2022/03/01 09:39:51;;;;;;;0.60;0.60;;;10.90;99.90;;;;;;6346340;22;20211;-92
2022/03/01 09:42:24;;;;;;;0.80;0.60;;;10.90;99.90;;;;;;6357238;22;20193;-92
2022/03/01 09:44:56;;;;;;;1.73;0.40;;;10.90;99.90;;;;;;6357949;22;20166;-94
2022/03/01 09:47:28;;;;;;;0.50;0.50;;;10.80;99.90;;;;;;6357846;22;20225;-93
2022/03/01 09:49:58;;;;;;;0.40;0.40;;;10.80;99.90;;;;;;6358940;22;20177;-94
2022/03/01 09:52:29;;;;;;;0.30;0.30;;;10.80;99.90;;;;;;6352324;22;20185;-93
2022/03/01 09:55:01;;;;;;;0.27;0.27;;;10.80;99.90;;;;;;6350942;22;20226;-94
2022/03/01 09:57:34;;;;;;;0.77;0.40;;;10.80;99.90;;;;;;6349008;22;20177;-94
2022/03/01 10:00:07;;;;;;;0.47;0.30;;;10.80;99.90;;;;;;6350837;22;20185;-94
2022/03/01 10:02:41;;;;;;;0.37;0.30;;;10.80;99.90;;;;;;6323206;22;20168;-93
2022/03/01 10:05:14;;;;;;;0.30;0.30;;;10.80;99.90;;;;;;6356922;22;20227;-92
2022/03/01 10:07:48;;;;;;;1.67;0.60;;;10.80;99.90;;;;;;6363500;22;20178;-93
2022/03/01 10:10:19;;;;;;;0.93;0.70;;;10.70;99.90;;;;;;6365072;22;20166;-92
2022/03/01 10:12:57;;;;;;;1.13;0.90;;;10.70;99.90;;;;;;6363223;22;20173;-92
2022/03/01 10:15:34;;;;;;;0.80;0.80;;;10.70;99.90;;;;;;6361539;22;20169;-93
2022/03/01 10:18:13;;;;;;;1.30;0.83;;;10.70;99.90;;;;;;6360881;22;20165;-92
2022/03/01 10:20:46;;;;;;;1.77;1.00;;;10.70;99.90;;;;;;6362451;22;20193;-95
2022/03/01 10:23:24;;;;;;;0.80;0.80;;;10.70;99.90;;;;;;6363393;22;20238;-93
2022/03/01 10:25:55;;;;;;;0.80;0.80;;;10.70;99.90;;;;;;6364500;22;20174;-93
2022/03/01 10:28:37;;;;;;;2.03;1.00;;;10.70;99.90;;;;;;6361441;22;20165;-93
2022/03/01 10:31:16;;;;;;;1.33;0.87;;;10.70;99.90;;;;;;6363491;22;20182;-92
2022/03/01 10:34:00;;;;;;;1.30;1.03;;;10.70;99.90;;;;;;6358359;22;20232;-94
2022/03/01 10:36:32;;;;;;;1.00;0.93;;;10.70;99.90;;;;;;6361329;22;20166;-92
2022/03/01 10:39:08;;;;;;;0.80;0.80;;;10.70;99.90;;;;;;6361144;22;20177;-94
2022/03/01 10:41:41;;;;;;;1.00;1.00;;;10.70;99.90;;;;;;6356874;22;20201;-94
2022/03/01 10:44:21;;;;;;;1.17;1.17;;;10.70;99.90;;;;;;6366338;22;20161;-94
2022/03/01 10:46:55;;;;;;;0.97;0.90;;;10.70;99.90;;;;;;6366443;22;20217;-92
2022/03/01 10:49:27;;;;;;;0.87;0.87;;;10.70;99.90;;;;;;6353395;22;20174;-94
2022/03/01 10:52:02;;;;;;;0.90;0.90;;;10.70;99.90;;;;;;6347106;22;20196;-93
2022/03/01 10:54:36;;;;;;;1.20;0.90;;;10.70;99.90;;;;;;6345264;22;20188;-94
2022/03/01 10:57:09;;;;;;;0.90;0.90;;;10.60;99.90;;;;;;6315971;22;20176;-94
2022/03/01 10:59:43;;;;;;;1.27;1.00;;;10.70;99.90;;;;;;6343854;22;20188;-93
2022/03/01 11:02:16;;;;;;;1.43;0.80;;;10.60;99.90;;;;;;6347339;22;20197;-93
2022/03/01 11:04:51;;;;;;;0.87;0.80;;;10.60;99.90;;;;;;6343904;22;20176;-92
2022/03/01 11:07:22;;;;;;;0.90;0.90;;;10.60;99.90;;;;;;6342142;22;20209;-93
2022/03/01 11:10:01;;;;;;;0.97;0.83;;;10.60;99.90;;;;;;6347328;22;20170;-92
2022/03/01 11:12:33;;;;;;;0.80;0.80;;;10.60;99.90;;;;;;6353069;22;20180;-92
2022/03/01 11:15:12;;;;;;;0.90;0.90;;;10.70;99.90;;;;;;6344209;22;20310;-93
2022/03/01 11:17:52;;;;;;;2.67;2.03;;;10.60;99.90;;;;;;6343435;22;20235;-92
2022/03/01 11:20:30;;;;;;;0.73;0.73;;;10.70;99.90;;;;;;6344097;22;20240;-93
2022/03/01 11:23:05;;;;;;;0.90;0.80;;;10.70;99.90;;;;;;6343125;22;20207;-93
2022/03/01 11:25:40;;;;;;;1.00;0.70;;;10.60;99.90;;;;;;6353698;22;20184;-93
2022/03/01 11:28:14;;;;;;;0.97;0.93;;;10.60;99.90;;;;;;6345399;22;20166;-93
2022/03/01 11:30:51;;;;;;;0.60;0.60;;;10.60;99.90;;;;;;6356323;22;20166;-92
2022/03/01 11:33:35;;;;;;;0.93;0.60;;;10.60;99.90;;;;;;6344021;22;20482;-93
2022/03/01 11:36:07;;;;;;;1.47;0.60;;;10.60;99.90;;;;;;6343472;22;20608;-94
2022/03/01 11:38:44;;;;;;;0.60;0.60;;;10.60;99.90;;;;;;6342341;22;20242;-93
2022/03/01 11:41:20;;;;;;;2.40;0.60;;;10.60;99.90;;;;;;6343013;22;20170;-93
2022/03/01 11:43:55;;;;;;;0.50;0.50;;;10.60;99.90;;;;;;6342241;22;20248;-92
2022/03/01 11:46:41;;;;;;;0.90;0.50;;;10.60;99.90;;;;;;6343148;22;20165;-94
2022/03/01 11:49:15;;;;;;;1.47;0.67;;;10.60;99.90;;;;;;6344168;22;20164;-94
2022/03/01 11:51:49;;;;;;;0.50;0.50;;;10.70;99.90;;;;;;6341932;22;20201;-93
2022/03/01 11:54:23;;;;;;;2.20;0.63;;;10.70;99.90;;;;;;6343471;22;20607;-93
2022/03/01 11:56:56;;;;;;;0.57;0.57;;;10.70;99.90;;;;;;6343115;22;20225;-93
2022/03/01 11:59:28;;;;;;;0.57;0.53;;;10.60;99.90;;;;;;6343484;22;20197;-93
2022/03/01 12:02:20;;;;;;;0.93;0.87;;;10.70;99.90;;;;;;6344341;22;20197;-94
2022/03/01 12:04:53;;;;;;;4.27;0.60;;;10.70;99.90;;;;;;6342032;22;20174;-91
2022/03/01 12:07:26;;;;;;;0.80;0.80;;;10.70;99.90;;;;;;6343563;22;20248;-93
2022/03/01 12:09:59;;;;;;;1.07;0.73;;;10.70;99.90;;;;;;6342599;22;20166;-93
2022/03/01 12:12:36;;;;;;;0.70;0.70;;;10.70;99.90;;;;;;6343677;22;20551;-93
2022/03/01 12:15:09;;;;;;;1.20;0.80;;;10.70;99.90;;;;;;6343065;22;20261;-93
2022/03/01 12:17:47;;;;;;;0.83;0.83;;;10.70;99.90;;;;;;6343061;22;20174;-93
2022/03/01 12:20:22;;;;;;;0.90;0.90;;;10.70;99.90;;;;;;6343677;22;20172;-94
2022/03/01 12:22:56;;;;;;;1.17;0.90;;;10.70;99.90;;;;;;6342912;22;20289;-92
2022/03/01 12:25:28;;;;;;;0.70;0.70;;;10.70;99.90;;;;;;6343967;22;20208;-94
2022/03/01 12:28:02;;;;;;;1.10;1.00;;;10.70;99.90;;;;;;6341660;22;20227;-93
2022/03/01 12:30:39;;;;;;;0.70;0.70;;;10.70;99.90;;;;;;6342316;22;20174;-93
2022/03/01 12:33:17;;;;;;;0.80;0.80;;;10.70;99.90;;;;;;6342632;22;20176;-93
2022/03/01 12:36:03;;;;;;;1.30;0.80;;;10.70;99.90;;;;;;6342922;22;20166;-94
2022/03/01 12:38:35;;;;;;;0.80;0.80;;;10.60;99.90;;;;;;6342122;22;20180;-92
2022/03/01 12:41:11;;;;;;;1.10;1.00;;;10.70;99.90;;;;;;6344628;22;20161;-93
2022/03/01 12:43:43;;;;;;;1.10;0.90;;;10.70;99.90;;;;;;6345418;22;20216;-92
2022/03/01 12:46:14;;;;;;;0.83;0.83;;;10.60;99.90;;;;;;6357874;22;20169;-93
2022/03/01 12:48:49;;;;;;;2.07;1.10;;;10.60;99.90;;;;;;6363708;22;20532;-95
2022/03/01 12:51:20;;;;;;;1.40;1.30;;;10.60;99.90;;;;;;6363290;22;20192;-94
2022/03/01 12:53:53;;;;;;;1.20;0.87;;;10.70;99.90;;;;;;6363245;22;20181;-93
2022/03/01 12:56:25;;;;;;;1.10;1.00;;;10.70;99.90;;;;;;6363979;22;20162;-93
2022/03/01 12:59:02;;;;;;;0.90;0.90;;;10.70;99.90;;;;;;6364733;22;20174;-92
2022/03/01 13:01:33;;;;;;;0.97;0.80;;;10.70;99.90;;;;;;6365523;22;20176;-93
2022/03/01 13:04:08;;;;;;;0.60;0.60;;;10.70;99.90;;;;;;6361173;22;20272;-93
2022/03/01 13:06:40;;;;;;;0.80;0.60;;;10.70;99.90;;;;;;6356920;22;20172;-92
2022/03/01 13:09:11;;;;;;;1.03;0.67;;;10.70;99.90;;;;;;6342318;22;20190;-93
2022/03/01 13:11:43;;;;;;;1.27;0.60;;;10.70;99.90;;;;;;6342928;22;20162;-94
2022/03/01 13:14:16;;;;;;;0.87;0.60;;;10.70;99.90;;;;;;6342436;22;20200;-94
2022/03/01 13:16:49;;;;;;;0.63;0.63;;;10.70;99.90;;;;;;6316377;22;20638;-93
2022/03/01 13:19:26;;;;;;;0.70;0.60;;;10.70;99.90;;;;;;6344042;22;20244;-93
2022/03/01 13:22:02;;;;;;;1.17;1.07;;;10.60;99.90;;;;;;6345619;22;20162;-94
2022/03/01 13:24:35;;;;;;;1.57;0.80;;;10.60;99.90;;;;;;6342245;22;20162;-94